X  Kiinni Metar Aviation säätiedot     EDDH Hamburg Helmut Schmidt Airport
Lämpötila
32°F Lämpötila
30°F Kastepiste
93% Kosteus



Tuuli
3 MPH
5 KM/T
1 M/S
3 KTS



220°
EL
Nykyiset olosuhteet

Pilvinen Pilvinen
Paine 1005.92 (hPa) - 29.7 (inHg)
Näkyvyys 5.6 (maili) - 9 (km)
Lentokenttä
Lentokentän koodi EDDH

Sijainti: Hamburg Helmut Schmidt Airport
Etäisyys: 11 (mi)

Metar:
EDDH 090620Z AUTO 22003KT 160V260 9000 OVC012 M00/M01 Q1006 TEMPO 3000 BR

Aika: 09-12-2022 07:20 CET